sensor_id;sensor_type;location;lat;lon;timestamp;P1;durP1;ratioP1;P2;durP2;ratioP2
10056;SDS011;5068;51.286;7.518;2023-11-19T00:01:00;1.20;;;0.30;;
10056;SDS011;5068;51.286;7.518;2023-11-19T00:02:37;1.73;;;0.40;;
10056;SDS011;5068;51.286;7.518;2023-11-19T00:04:10;0.63;;;0.10;;
10056;SDS011;5068;51.286;7.518;2023-11-19T00:05:43;0.35;;;0.30;;
10056;SDS011;5068;51.286;7.518;2023-11-19T00:07:16;0.40;;;0.20;;
10056;SDS011;5068;51.286;7.518;2023-11-19T00:08:51;0.22;;;0.15;;
10056;SDS011;5068;51.286;7.518;2023-11-19T00:10:25;1.48;;;0.10;;
10056;SDS011;5068;51.286;7.518;2023-11-19T00:11:59;0.43;;;0.20;;
10056;SDS011;5068;51.286;7.518;2023-11-19T00:13:32;0.68;;;0.10;;
10056;SDS011;5068;51.286;7.518;2023-11-19T00:15:06;0.40;;;0.10;;
10056;SDS011;5068;51.286;7.518;2023-11-19T00:16:42;0.88;;;0.20;;
10056;SDS011;5068;51.286;7.518;2023-11-19T00:18:15;0.57;;;0.13;;
10056;SDS011;5068;51.286;7.518;2023-11-19T00:19:48;0.20;;;0.10;;
10056;SDS011;5068;51.286;7.518;2023-11-19T00:21:22;0.88;;;0.70;;
10056;SDS011;5068;51.286;7.518;2023-11-19T00:22:55;0.60;;;0.20;;
10056;SDS011;5068;51.286;7.518;2023-11-19T00:24:28;0.30;;;0.20;;
10056;SDS011;5068;51.286;7.518;2023-11-19T00:26:00;0.50;;;0.38;;
10056;SDS011;5068;51.286;7.518;2023-11-19T00:27:37;0.50;;;0.20;;
10056;SDS011;5068;51.286;7.518;2023-11-19T00:29:10;0.40;;;0.30;;
10056;SDS011;5068;51.286;7.518;2023-11-19T00:30:46;0.90;;;0.20;;
10056;SDS011;5068;51.286;7.518;2023-11-19T00:32:18;0.93;;;0.20;;
10056;SDS011;5068;51.286;7.518;2023-11-19T00:33:52;0.40;;;0.17;;
10056;SDS011;5068;51.286;7.518;2023-11-19T00:35:24;1.63;;;0.35;;
10056;SDS011;5068;51.286;7.518;2023-11-19T00:36:57;0.30;;;0.10;;
10056;SDS011;5068;51.286;7.518;2023-11-19T00:38:30;0.50;;;0.20;;
10056;SDS011;5068;51.286;7.518;2023-11-19T00:40:03;0.50;;;0.20;;
10056;SDS011;5068;51.286;7.518;2023-11-19T00:41:37;0.32;;;0.10;;
10056;SDS011;5068;51.286;7.518;2023-11-19T00:43:13;0.40;;;0.20;;
10056;SDS011;5068;51.286;7.518;2023-11-19T00:44:45;1.95;;;0.30;;
10056;SDS011;5068;51.286;7.518;2023-11-19T00:46:21;0.47;;;0.30;;
10056;SDS011;5068;51.286;7.518;2023-11-19T00:47:53;0.30;;;0.20;;
10056;SDS011;5068;51.286;7.518;2023-11-19T00:49:28;0.43;;;0.30;;
10056;SDS011;5068;51.286;7.518;2023-11-19T00:51:00;0.50;;;0.30;;
10056;SDS011;5068;51.286;7.518;2023-11-19T00:52:33;1.63;;;0.60;;
10056;SDS011;5068;51.286;7.518;2023-11-19T00:54:07;1.33;;;0.50;;
10056;SDS011;5068;51.286;7.518;2023-11-19T00:55:40;0.75;;;0.35;;
10056;SDS011;5068;51.286;7.518;2023-11-19T00:57:15;0.30;;;0.20;;
10056;SDS011;5068;51.286;7.518;2023-11-19T00:58:50;1.27;;;0.40;;
10056;SDS011;5068;51.286;7.518;2023-11-19T01:00:22;0.40;;;0.30;;
10056;SDS011;5068;51.286;7.518;2023-11-19T01:01:55;0.55;;;0.32;;
10056;SDS011;5068;51.286;7.518;2023-11-19T01:03:28;0.60;;;0.30;;
10056;SDS011;5068;51.286;7.518;2023-11-19T01:05:01;0.52;;;0.40;;
10056;SDS011;5068;51.286;7.518;2023-11-19T01:06:34;1.40;;;0.50;;
10056;SDS011;5068;51.286;7.518;2023-11-19T01:08:19;0.55;;;0.40;;
10056;SDS011;5068;51.286;7.518;2023-11-19T01:09:53;0.57;;;0.40;;
10056;SDS011;5068;51.286;7.518;2023-11-19T01:11:25;0.63;;;0.35;;
10056;SDS011;5068;51.286;7.518;2023-11-19T01:12:59;0.50;;;0.30;;
10056;SDS011;5068;51.286;7.518;2023-11-19T01:14:33;0.60;;;0.40;;
10056;SDS011;5068;51.286;7.518;2023-11-19T01:16:07;0.65;;;0.40;;
10056;SDS011;5068;51.286;7.518;2023-11-19T01:17:41;1.40;;;0.38;;
10056;SDS011;5068;51.286;7.518;2023-11-19T01:19:24;0.90;;;0.50;;
10056;SDS011;5068;51.286;7.518;2023-11-19T01:20:56;0.75;;;0.38;;
10056;SDS011;5068;51.286;7.518;2023-11-19T01:22:29;1.10;;;0.40;;
10056;SDS011;5068;51.286;7.518;2023-11-19T01:24:02;0.60;;;0.45;;
10056;SDS011;5068;51.286;7.518;2023-11-19T01:25:37;1.38;;;0.47;;
10056;SDS011;5068;51.286;7.518;2023-11-19T01:27:10;0.70;;;0.38;;
10056;SDS011;5068;51.286;7.518;2023-11-19T01:28:43;0.50;;;0.32;;
10056;SDS011;5068;51.286;7.518;2023-11-19T01:30:22;1.25;;;0.40;;
10056;SDS011;5068;51.286;7.518;2023-11-19T01:33:28;1.48;;;0.30;;
10056;SDS011;5068;51.286;7.518;2023-11-19T01:35:01;3.58;;;0.77;;
10056;SDS011;5068;51.286;7.518;2023-11-19T01:36:33;2.13;;;0.30;;
10056;SDS011;5068;51.286;7.518;2023-11-19T01:38:07;1.83;;;0.50;;
10056;SDS011;5068;51.286;7.518;2023-11-19T01:39:40;3.05;;;0.60;;
10056;SDS011;5068;51.286;7.518;2023-11-19T01:41:16;1.67;;;0.45;;
10056;SDS011;5068;51.286;7.518;2023-11-19T01:42:49;0.80;;;0.45;;
10056;SDS011;5068;51.286;7.518;2023-11-19T01:44:22;0.47;;;0.30;;
10056;SDS011;5068;51.286;7.518;2023-11-19T01:45:56;0.82;;;0.50;;
10056;SDS011;5068;51.286;7.518;2023-11-19T01:47:29;0.70;;;0.40;;
10056;SDS011;5068;51.286;7.518;2023-11-19T01:49:03;0.82;;;0.40;;
10056;SDS011;5068;51.286;7.518;2023-11-19T01:50:37;0.47;;;0.40;;
10056;SDS011;5068;51.286;7.518;2023-11-19T01:52:11;1.42;;;0.68;;
10056;SDS011;5068;51.286;7.518;2023-11-19T01:53:44;0.55;;;0.38;;
10056;SDS011;5068;51.286;7.518;2023-11-19T01:55:17;0.60;;;0.50;;
10056;SDS011;5068;51.286;7.518;2023-11-19T01:58:28;0.68;;;0.45;;
10056;SDS011;5068;51.286;7.518;2023-11-19T02:00:02;0.63;;;0.50;;
10056;SDS011;5068;51.286;7.518;2023-11-19T02:01:45;1.20;;;0.52;;
10056;SDS011;5068;51.286;7.518;2023-11-19T02:04:52;1.40;;;0.40;;
10056;SDS011;5068;51.286;7.518;2023-11-19T02:06:26;1.75;;;0.40;;
10056;SDS011;5068;51.286;7.518;2023-11-19T02:08:00;1.13;;;0.40;;
10056;SDS011;5068;51.286;7.518;2023-11-19T02:09:34;1.95;;;0.43;;
10056;SDS011;5068;51.286;7.518;2023-11-19T02:11:07;1.08;;;0.40;;
10056;SDS011;5068;51.286;7.518;2023-11-19T02:12:40;1.48;;;0.32;;
10056;SDS011;5068;51.286;7.518;2023-11-19T02:14:15;0.50;;;0.30;;
10056;SDS011;5068;51.286;7.518;2023-11-19T02:15:48;1.27;;;0.30;;
10056;SDS011;5068;51.286;7.518;2023-11-19T02:17:27;1.45;;;0.35;;
10056;SDS011;5068;51.286;7.518;2023-11-19T02:19:00;0.57;;;0.35;;
10056;SDS011;5068;51.286;7.518;2023-11-19T02:22:07;1.15;;;0.30;;
10056;SDS011;5068;51.286;7.518;2023-11-19T02:23:40;3.92;;;0.52;;
10056;SDS011;5068;51.286;7.518;2023-11-19T02:25:15;0.90;;;0.75;;
10056;SDS011;5068;51.286;7.518;2023-11-19T02:26:57;0.80;;;0.55;;
10056;SDS011;5068;51.286;7.518;2023-11-19T02:28:38;0.80;;;0.50;;
10056;SDS011;5068;51.286;7.518;2023-11-19T02:30:11;0.73;;;0.50;;
10056;SDS011;5068;51.286;7.518;2023-11-19T02:31:46;0.90;;;0.40;;
10056;SDS011;5068;51.286;7.518;2023-11-19T02:33:19;0.80;;;0.47;;
10056;SDS011;5068;51.286;7.518;2023-11-19T02:34:52;2.30;;;0.43;;
10056;SDS011;5068;51.286;7.518;2023-11-19T02:36:38;2.97;;;0.57;;
10056;SDS011;5068;51.286;7.518;2023-11-19T02:38:12;3.78;;;0.47;;
10056;SDS011;5068;51.286;7.518;2023-11-19T02:39:46;2.25;;;0.50;;
10056;SDS011;5068;51.286;7.518;2023-11-19T02:41:19;1.40;;;0.60;;
10056;SDS011;5068;51.286;7.518;2023-11-19T02:42:52;2.22;;;0.65;;
10056;SDS011;5068;51.286;7.518;2023-11-19T02:44:29;3.10;;;0.70;;
10056;SDS011;5068;51.286;7.518;2023-11-19T02:46:03;1.70;;;0.50;;
10056;SDS011;5068;51.286;7.518;2023-11-19T02:47:46;2.80;;;0.40;;
10056;SDS011;5068;51.286;7.518;2023-11-19T02:49:21;3.42;;;0.70;;
10056;SDS011;5068;51.286;7.518;2023-11-19T02:50:53;2.92;;;0.80;;
10056;SDS011;5068;51.286;7.518;2023-11-19T02:52:29;2.22;;;0.60;;
10056;SDS011;5068;51.286;7.518;2023-11-19T02:54:06;1.63;;;0.60;;
10056;SDS011;5068;51.286;7.518;2023-11-19T02:55:40;4.43;;;0.90;;
10056;SDS011;5068;51.286;7.518;2023-11-19T02:57:12;2.13;;;0.70;;
10056;SDS011;5068;51.286;7.518;2023-11-19T02:58:48;1.38;;;0.63;;
10056;SDS011;5068;51.286;7.518;2023-11-19T03:00:22;2.00;;;0.60;;
10056;SDS011;5068;51.286;7.518;2023-11-19T03:02:03;2.60;;;0.60;;
10056;SDS011;5068;51.286;7.518;2023-11-19T03:03:35;2.13;;;0.50;;
10056;SDS011;5068;51.286;7.518;2023-11-19T03:05:12;3.75;;;0.45;;
10056;SDS011;5068;51.286;7.518;2023-11-19T03:06:46;2.80;;;0.50;;
10056;SDS011;5068;51.286;7.518;2023-11-19T03:08:19;3.05;;;0.80;;
10056;SDS011;5068;51.286;7.518;2023-11-19T03:09:54;2.97;;;0.80;;
10056;SDS011;5068;51.286;7.518;2023-11-19T03:11:27;3.17;;;0.90;;
10056;SDS011;5068;51.286;7.518;2023-11-19T03:13:01;2.72;;;0.63;;
10056;SDS011;5068;51.286;7.518;2023-11-19T03:14:34;3.03;;;0.70;;
10056;SDS011;5068;51.286;7.518;2023-11-19T03:16:08;5.05;;;0.65;;
10056;SDS011;5068;51.286;7.518;2023-11-19T03:17:43;2.45;;;0.80;;
10056;SDS011;5068;51.286;7.518;2023-11-19T03:19:16;3.10;;;0.70;;
10056;SDS011;5068;51.286;7.518;2023-11-19T03:20:57;4.00;;;1.20;;
10056;SDS011;5068;51.286;7.518;2023-11-19T03:22:30;4.80;;;1.10;;
10056;SDS011;5068;51.286;7.518;2023-11-19T03:24:02;4.75;;;0.95;;
10056;SDS011;5068;51.286;7.518;2023-11-19T03:25:36;5.30;;;1.00;;
10056;SDS011;5068;51.286;7.518;2023-11-19T03:27:08;3.28;;;0.80;;
10056;SDS011;5068;51.286;7.518;2023-11-19T03:28:42;3.00;;;0.60;;
10056;SDS011;5068;51.286;7.518;2023-11-19T03:30:16;4.63;;;1.05;;
10056;SDS011;5068;51.286;7.518;2023-11-19T03:31:50;2.83;;;0.95;;
10056;SDS011;5068;51.286;7.518;2023-11-19T03:33:23;2.63;;;0.80;;
10056;SDS011;5068;51.286;7.518;2023-11-19T03:34:57;5.00;;;0.88;;
10056;SDS011;5068;51.286;7.518;2023-11-19T03:36:31;3.22;;;0.77;;
10056;SDS011;5068;51.286;7.518;2023-11-19T03:38:05;3.20;;;1.00;;
10056;SDS011;5068;51.286;7.518;2023-11-19T03:39:38;6.53;;;1.20;;
10056;SDS011;5068;51.286;7.518;2023-11-19T03:41:11;6.28;;;1.10;;
10056;SDS011;5068;51.286;7.518;2023-11-19T03:42:44;2.90;;;1.05;;
10056;SDS011;5068;51.286;7.518;2023-11-19T03:44:17;3.95;;;1.02;;
10056;SDS011;5068;51.286;7.518;2023-11-19T03:45:50;3.45;;;1.00;;
10056;SDS011;5068;51.286;7.518;2023-11-19T03:47:25;4.18;;;1.00;;
10056;SDS011;5068;51.286;7.518;2023-11-19T03:48:58;5.38;;;1.13;;
10056;SDS011;5068;51.286;7.518;2023-11-19T03:50:31;3.78;;;1.10;;
10056;SDS011;5068;51.286;7.518;2023-11-19T03:52:03;5.20;;;1.88;;
10056;SDS011;5068;51.286;7.518;2023-11-19T03:53:50;3.88;;;1.00;;
10056;SDS011;5068;51.286;7.518;2023-11-19T03:55:23;4.13;;;1.00;;
10056;SDS011;5068;51.286;7.518;2023-11-19T03:56:56;3.60;;;0.73;;
10056;SDS011;5068;51.286;7.518;2023-11-19T03:58:29;4.50;;;0.93;;
10056;SDS011;5068;51.286;7.518;2023-11-19T04:00:01;6.78;;;1.20;;
10056;SDS011;5068;51.286;7.518;2023-11-19T04:01:43;6.53;;;0.95;;
10056;SDS011;5068;51.286;7.518;2023-11-19T04:03:17;6.85;;;1.33;;
10056;SDS011;5068;51.286;7.518;2023-11-19T04:04:51;4.72;;;1.05;;
10056;SDS011;5068;51.286;7.518;2023-11-19T04:06:23;4.90;;;1.13;;
10056;SDS011;5068;51.286;7.518;2023-11-19T04:07:56;7.90;;;1.40;;
10056;SDS011;5068;51.286;7.518;2023-11-19T04:09:29;4.85;;;1.50;;
10056;SDS011;5068;51.286;7.518;2023-11-19T04:11:02;3.60;;;1.00;;
10056;SDS011;5068;51.286;7.518;2023-11-19T04:12:36;4.03;;;1.02;;
10056;SDS011;5068;51.286;7.518;2023-11-19T04:14:09;4.95;;;1.20;;
10056;SDS011;5068;51.286;7.518;2023-11-19T04:15:42;5.55;;;1.10;;
10056;SDS011;5068;51.286;7.518;2023-11-19T04:17:14;6.35;;;0.90;;
10056;SDS011;5068;51.286;7.518;2023-11-19T04:18:49;6.28;;;1.05;;
10056;SDS011;5068;51.286;7.518;2023-11-19T04:20:22;3.25;;;0.95;;
10056;SDS011;5068;51.286;7.518;2023-11-19T04:21:55;5.45;;;1.15;;
10056;SDS011;5068;51.286;7.518;2023-11-19T04:23:27;5.63;;;1.00;;
10056;SDS011;5068;51.286;7.518;2023-11-19T04:25:01;5.70;;;1.20;;
10056;SDS011;5068;51.286;7.518;2023-11-19T04:26:33;4.22;;;1.23;;
10056;SDS011;5068;51.286;7.518;2023-11-19T04:28:08;2.67;;;0.65;;
10056;SDS011;5068;51.286;7.518;2023-11-19T04:29:40;6.38;;;0.90;;
10056;SDS011;5068;51.286;7.518;2023-11-19T04:31:14;3.97;;;0.85;;
10056;SDS011;5068;51.286;7.518;2023-11-19T04:32:47;5.32;;;1.15;;
10056;SDS011;5068;51.286;7.518;2023-11-19T04:34:22;4.10;;;1.42;;
10056;SDS011;5068;51.286;7.518;2023-11-19T04:35:55;5.13;;;1.38;;
10056;SDS011;5068;51.286;7.518;2023-11-19T04:37:28;4.15;;;1.15;;
10056;SDS011;5068;51.286;7.518;2023-11-19T04:39:01;5.28;;;1.33;;
10056;SDS011;5068;51.286;7.518;2023-11-19T04:40:34;5.35;;;1.30;;
10056;SDS011;5068;51.286;7.518;2023-11-19T04:42:07;5.35;;;0.93;;
10056;SDS011;5068;51.286;7.518;2023-11-19T04:43:39;4.75;;;1.27;;
10056;SDS011;5068;51.286;7.518;2023-11-19T04:45:13;8.25;;;1.58;;
10056;SDS011;5068;51.286;7.518;2023-11-19T04:46:47;6.57;;;1.40;;
10056;SDS011;5068;51.286;7.518;2023-11-19T04:48:20;5.97;;;1.25;;
10056;SDS011;5068;51.286;7.518;2023-11-19T04:49:55;7.60;;;1.33;;
10056;SDS011;5068;51.286;7.518;2023-11-19T04:51:29;3.90;;;1.08;;
10056;SDS011;5068;51.286;7.518;2023-11-19T04:53:01;4.55;;;1.20;;
10056;SDS011;5068;51.286;7.518;2023-11-19T04:54:34;5.93;;;1.55;;
10056;SDS011;5068;51.286;7.518;2023-11-19T04:56:08;5.68;;;1.13;;
10056;SDS011;5068;51.286;7.518;2023-11-19T04:57:41;7.13;;;1.40;;
10056;SDS011;5068;51.286;7.518;2023-11-19T04:59:15;7.18;;;1.15;;
10056;SDS011;5068;51.286;7.518;2023-11-19T05:00:47;6.10;;;1.02;;
10056;SDS011;5068;51.286;7.518;2023-11-19T05:02:21;7.07;;;1.38;;
10056;SDS011;5068;51.286;7.518;2023-11-19T05:03:53;6.53;;;1.40;;
10056;SDS011;5068;51.286;7.518;2023-11-19T05:05:28;6.63;;;1.70;;
10056;SDS011;5068;51.286;7.518;2023-11-19T05:07:00;9.23;;;1.80;;
10056;SDS011;5068;51.286;7.518;2023-11-19T05:08:35;5.28;;;1.38;;
10056;SDS011;5068;51.286;7.518;2023-11-19T05:10:07;6.80;;;1.05;;
10056;SDS011;5068;51.286;7.518;2023-11-19T05:11:41;6.15;;;1.50;;
10056;SDS011;5068;51.286;7.518;2023-11-19T05:13:17;8.70;;;1.20;;
10056;SDS011;5068;51.286;7.518;2023-11-19T05:14:51;7.30;;;1.15;;
10056;SDS011;5068;51.286;7.518;2023-11-19T05:16:23;7.78;;;1.23;;
10056;SDS011;5068;51.286;7.518;2023-11-19T05:17:56;8.35;;;1.38;;
10056;SDS011;5068;51.286;7.518;2023-11-19T05:19:29;7.15;;;1.20;;
10056;SDS011;5068;51.286;7.518;2023-11-19T05:21:03;6.47;;;1.42;;
10056;SDS011;5068;51.286;7.518;2023-11-19T05:22:38;7.45;;;1.13;;
10056;SDS011;5068;51.286;7.518;2023-11-19T05:24:11;3.92;;;1.10;;
10056;SDS011;5068;51.286;7.518;2023-11-19T05:25:44;6.93;;;1.67;;
10056;SDS011;5068;51.286;7.518;2023-11-19T05:27:17;7.10;;;1.20;;
10056;SDS011;5068;51.286;7.518;2023-11-19T05:28:50;4.97;;;1.45;;
10056;SDS011;5068;51.286;7.518;2023-11-19T05:30:22;4.15;;;1.15;;
10056;SDS011;5068;51.286;7.518;2023-11-19T05:31:56;5.25;;;1.45;;
10056;SDS011;5068;51.286;7.518;2023-11-19T05:33:28;8.23;;;1.58;;
10056;SDS011;5068;51.286;7.518;2023-11-19T05:35:02;4.78;;;1.35;;
10056;SDS011;5068;51.286;7.518;2023-11-19T05:36:37;7.00;;;1.42;;
10056;SDS011;5068;51.286;7.518;2023-11-19T05:39:43;6.43;;;1.67;;
10056;SDS011;5068;51.286;7.518;2023-11-19T05:41:17;5.30;;;0.90;;
10056;SDS011;5068;51.286;7.518;2023-11-19T05:42:50;5.10;;;1.58;;
10056;SDS011;5068;51.286;7.518;2023-11-19T05:44:23;7.50;;;1.73;;
10056;SDS011;5068;51.286;7.518;2023-11-19T05:45:55;6.90;;;1.35;;
10056;SDS011;5068;51.286;7.518;2023-11-19T05:47:29;7.40;;;1.40;;
10056;SDS011;5068;51.286;7.518;2023-11-19T05:49:01;6.15;;;1.50;;
10056;SDS011;5068;51.286;7.518;2023-11-19T05:50:34;9.35;;;1.58;;
10056;SDS011;5068;51.286;7.518;2023-11-19T05:52:08;7.95;;;1.55;;
10056;SDS011;5068;51.286;7.518;2023-11-19T05:53:43;6.47;;;1.85;;
10056;SDS011;5068;51.286;7.518;2023-11-19T05:55:17;8.57;;;1.77;;
10056;SDS011;5068;51.286;7.518;2023-11-19T05:56:50;5.65;;;1.50;;
10056;SDS011;5068;51.286;7.518;2023-11-19T05:58:25;11.00;;;1.52;;
10056;SDS011;5068;51.286;7.518;2023-11-19T06:00:00;10.65;;;1.88;;
10056;SDS011;5068;51.286;7.518;2023-11-19T06:01:42;8.57;;;1.70;;
10056;SDS011;5068;51.286;7.518;2023-11-19T06:03:15;11.65;;;3.13;;
10056;SDS011;5068;51.286;7.518;2023-11-19T06:04:47;9.07;;;1.98;;
10056;SDS011;5068;51.286;7.518;2023-11-19T06:06:21;8.48;;;1.90;;
10056;SDS011;5068;51.286;7.518;2023-11-19T06:07:54;10.85;;;2.08;;
10056;SDS011;5068;51.286;7.518;2023-11-19T06:09:29;10.10;;;1.50;;
10056;SDS011;5068;51.286;7.518;2023-11-19T06:11:01;6.63;;;1.40;;
10056;SDS011;5068;51.286;7.518;2023-11-19T06:12:34;8.35;;;1.67;;
10056;SDS011;5068;51.286;7.518;2023-11-19T06:14:09;8.18;;;1.90;;
10056;SDS011;5068;51.286;7.518;2023-11-19T06:15:43;8.05;;;1.77;;
10056;SDS011;5068;51.286;7.518;2023-11-19T06:17:15;7.50;;;1.77;;
10056;SDS011;5068;51.286;7.518;2023-11-19T06:18:49;6.15;;;1.23;;
10056;SDS011;5068;51.286;7.518;2023-11-19T06:20:21;8.55;;;1.77;;
10056;SDS011;5068;51.286;7.518;2023-11-19T06:21:54;8.82;;;2.33;;
10056;SDS011;5068;51.286;7.518;2023-11-19T06:23:28;6.85;;;1.55;;
10056;SDS011;5068;51.286;7.518;2023-11-19T06:25:01;5.97;;;2.10;;
10056;SDS011;5068;51.286;7.518;2023-11-19T06:26:38;7.60;;;1.27;;
10056;SDS011;5068;51.286;7.518;2023-11-19T06:28:12;8.32;;;1.80;;
10056;SDS011;5068;51.286;7.518;2023-11-19T06:29:44;9.82;;;2.00;;
10056;SDS011;5068;51.286;7.518;2023-11-19T06:31:18;7.68;;;1.80;;
10056;SDS011;5068;51.286;7.518;2023-11-19T06:32:50;8.38;;;1.95;;
10056;SDS011;5068;51.286;7.518;2023-11-19T06:34:24;9.15;;;1.73;;
10056;SDS011;5068;51.286;7.518;2023-11-19T06:35:56;9.40;;;1.60;;
10056;SDS011;5068;51.286;7.518;2023-11-19T06:37:40;6.70;;;1.22;;
10056;SDS011;5068;51.286;7.518;2023-11-19T06:39:20;9.63;;;1.60;;
10056;SDS011;5068;51.286;7.518;2023-11-19T06:40:53;8.48;;;1.40;;
10056;SDS011;5068;51.286;7.518;2023-11-19T06:42:25;9.45;;;1.77;;
10056;SDS011;5068;51.286;7.518;2023-11-19T06:43:59;9.55;;;1.60;;
10056;SDS011;5068;51.286;7.518;2023-11-19T06:45:31;9.20;;;1.77;;
10056;SDS011;5068;51.286;7.518;2023-11-19T06:47:04;5.85;;;1.48;;
10056;SDS011;5068;51.286;7.518;2023-11-19T06:48:37;6.35;;;1.50;;
10056;SDS011;5068;51.286;7.518;2023-11-19T06:50:11;6.47;;;1.58;;
10056;SDS011;5068;51.286;7.518;2023-11-19T06:51:44;7.25;;;1.50;;
10056;SDS011;5068;51.286;7.518;2023-11-19T06:53:17;10.32;;;1.83;;
10056;SDS011;5068;51.286;7.518;2023-11-19T06:54:51;10.48;;;1.80;;
10056;SDS011;5068;51.286;7.518;2023-11-19T06:56:38;5.90;;;1.38;;
10056;SDS011;5068;51.286;7.518;2023-11-19T06:58:13;8.27;;;1.67;;
10056;SDS011;5068;51.286;7.518;2023-11-19T06:59:45;5.90;;;1.40;;
10056;SDS011;5068;51.286;7.518;2023-11-19T07:01:18;8.75;;;1.77;;
10056;SDS011;5068;51.286;7.518;2023-11-19T07:02:51;7.35;;;1.40;;
10056;SDS011;5068;51.286;7.518;2023-11-19T07:04:24;6.63;;;1.50;;
10056;SDS011;5068;51.286;7.518;2023-11-19T07:05:56;8.30;;;2.03;;
10056;SDS011;5068;51.286;7.518;2023-11-19T07:07:30;7.32;;;1.75;;
10056;SDS011;5068;51.286;7.518;2023-11-19T07:09:03;7.28;;;1.65;;
10056;SDS011;5068;51.286;7.518;2023-11-19T07:10:42;9.98;;;1.80;;
10056;SDS011;5068;51.286;7.518;2023-11-19T07:12:14;7.47;;;1.80;;
10056;SDS011;5068;51.286;7.518;2023-11-19T07:13:48;10.30;;;1.77;;
10056;SDS011;5068;51.286;7.518;2023-11-19T07:15:21;6.93;;;2.05;;
10056;SDS011;5068;51.286;7.518;2023-11-19T07:16:54;7.72;;;2.00;;
10056;SDS011;5068;51.286;7.518;2023-11-19T07:18:27;6.50;;;1.10;;
10056;SDS011;5068;51.286;7.518;2023-11-19T07:20:00;7.90;;;1.65;;
10056;SDS011;5068;51.286;7.518;2023-11-19T07:21:33;8.80;;;1.60;;
10056;SDS011;5068;51.286;7.518;2023-11-19T07:23:10;8.15;;;1.85;;
10056;SDS011;5068;51.286;7.518;2023-11-19T07:24:44;12.63;;;2.15;;
10056;SDS011;5068;51.286;7.518;2023-11-19T07:26:19;7.68;;;1.67;;
10056;SDS011;5068;51.286;7.518;2023-11-19T07:27:51;9.68;;;1.73;;
10056;SDS011;5068;51.286;7.518;2023-11-19T07:29:24;7.15;;;1.60;;
10056;SDS011;5068;51.286;7.518;2023-11-19T07:31:00;9.00;;;2.13;;
10056;SDS011;5068;51.286;7.518;2023-11-19T07:32:34;7.78;;;1.67;;
10056;SDS011;5068;51.286;7.518;2023-11-19T07:34:06;8.20;;;1.75;;
10056;SDS011;5068;51.286;7.518;2023-11-19T07:35:40;7.00;;;1.58;;
10056;SDS011;5068;51.286;7.518;2023-11-19T07:37:14;6.78;;;1.58;;
10056;SDS011;5068;51.286;7.518;2023-11-19T07:38:48;9.70;;;2.10;;
10056;SDS011;5068;51.286;7.518;2023-11-19T07:40:21;8.32;;;1.83;;
10056;SDS011;5068;51.286;7.518;2023-11-19T07:41:57;9.57;;;1.73;;
10056;SDS011;5068;51.286;7.518;2023-11-19T07:43:30;9.88;;;1.63;;
10056;SDS011;5068;51.286;7.518;2023-11-19T07:45:04;9.77;;;2.38;;
10056;SDS011;5068;51.286;7.518;2023-11-19T07:46:38;9.50;;;1.67;;
10056;SDS011;5068;51.286;7.518;2023-11-19T07:48:13;10.48;;;1.70;;
10056;SDS011;5068;51.286;7.518;2023-11-19T07:49:47;10.05;;;1.70;;
10056;SDS011;5068;51.286;7.518;2023-11-19T07:51:20;7.30;;;1.73;;
10056;SDS011;5068;51.286;7.518;2023-11-19T07:52:53;10.02;;;1.63;;
10056;SDS011;5068;51.286;7.518;2023-11-19T07:54:26;12.95;;;2.08;;
10056;SDS011;5068;51.286;7.518;2023-11-19T07:55:58;9.30;;;2.10;;
10056;SDS011;5068;51.286;7.518;2023-11-19T07:57:33;9.32;;;1.23;;
10056;SDS011;5068;51.286;7.518;2023-11-19T08:00:39;8.45;;;1.67;;
10056;SDS011;5068;51.286;7.518;2023-11-19T08:02:13;7.95;;;1.40;;
10056;SDS011;5068;51.286;7.518;2023-11-19T08:03:46;13.27;;;2.20;;
10056;SDS011;5068;51.286;7.518;2023-11-19T08:05:21;8.57;;;1.40;;
10056;SDS011;5068;51.286;7.518;2023-11-19T08:06:56;6.82;;;1.60;;
10056;SDS011;5068;51.286;7.518;2023-11-19T08:08:29;8.25;;;1.70;;
10056;SDS011;5068;51.286;7.518;2023-11-19T08:10:04;8.82;;;1.75;;
10056;SDS011;5068;51.286;7.518;2023-11-19T08:11:41;6.63;;;1.45;;
10056;SDS011;5068;51.286;7.518;2023-11-19T08:13:16;9.05;;;2.45;;
10056;SDS011;5068;51.286;7.518;2023-11-19T08:14:51;11.40;;;1.73;;
10056;SDS011;5068;51.286;7.518;2023-11-19T08:16:25;9.35;;;2.03;;
10056;SDS011;5068;51.286;7.518;2023-11-19T08:17:58;10.10;;;1.52;;
10056;SDS011;5068;51.286;7.518;2023-11-19T08:19:30;8.50;;;1.80;;
10056;SDS011;5068;51.286;7.518;2023-11-19T08:21:04;9.65;;;2.20;;
10056;SDS011;5068;51.286;7.518;2023-11-19T08:22:37;7.90;;;1.88;;
10056;SDS011;5068;51.286;7.518;2023-11-19T08:24:10;9.57;;;2.08;;
10056;SDS011;5068;51.286;7.518;2023-11-19T08:25:42;7.78;;;2.22;;
10056;SDS011;5068;51.286;7.518;2023-11-19T08:27:16;10.30;;;2.28;;
10056;SDS011;5068;51.286;7.518;2023-11-19T08:28:50;7.05;;;1.92;;
10056;SDS011;5068;51.286;7.518;2023-11-19T08:30:24;7.95;;;1.70;;
10056;SDS011;5068;51.286;7.518;2023-11-19T08:31:56;9.43;;;1.75;;
10056;SDS011;5068;51.286;7.518;2023-11-19T08:33:32;10.10;;;2.53;;
10056;SDS011;5068;51.286;7.518;2023-11-19T08:35:06;8.15;;;1.60;;
10056;SDS011;5068;51.286;7.518;2023-11-19T08:36:39;9.73;;;1.50;;
10056;SDS011;5068;51.286;7.518;2023-11-19T08:38:12;12.45;;;2.15;;
10056;SDS011;5068;51.286;7.518;2023-11-19T08:39:44;9.07;;;1.85;;
10056;SDS011;5068;51.286;7.518;2023-11-19T08:41:17;10.30;;;1.80;;
10056;SDS011;5068;51.286;7.518;2023-11-19T08:42:51;10.18;;;2.38;;
10056;SDS011;5068;51.286;7.518;2023-11-19T08:44:25;8.63;;;1.85;;
10056;SDS011;5068;51.286;7.518;2023-11-19T08:45:58;9.65;;;1.88;;
10056;SDS011;5068;51.286;7.518;2023-11-19T08:47:31;10.55;;;1.90;;
10056;SDS011;5068;51.286;7.518;2023-11-19T08:49:03;5.78;;;1.30;;
10056;SDS011;5068;51.286;7.518;2023-11-19T08:50:37;7.28;;;1.52;;
10056;SDS011;5068;51.286;7.518;2023-11-19T08:52:10;9.82;;;2.05;;
10056;SDS011;5068;51.286;7.518;2023-11-19T08:53:43;11.15;;;2.30;;
10056;SDS011;5068;51.286;7.518;2023-11-19T08:55:16;8.43;;;1.60;;
10056;SDS011;5068;51.286;7.518;2023-11-19T08:56:49;6.57;;;1.70;;
10056;SDS011;5068;51.286;7.518;2023-11-19T08:58:22;9.73;;;2.10;;
10056;SDS011;5068;51.286;7.518;2023-11-19T08:59:55;12.38;;;2.08;;
10056;SDS011;5068;51.286;7.518;2023-11-19T09:01:29;12.57;;;1.80;;
10056;SDS011;5068;51.286;7.518;2023-11-19T09:03:01;10.63;;;1.73;;
10056;SDS011;5068;51.286;7.518;2023-11-19T09:04:35;8.25;;;2.03;;
10056;SDS011;5068;51.286;7.518;2023-11-19T09:06:08;10.30;;;2.05;;
10056;SDS011;5068;51.286;7.518;2023-11-19T09:07:41;7.93;;;2.40;;
10056;SDS011;5068;51.286;7.518;2023-11-19T09:09:14;11.70;;;2.40;;
10056;SDS011;5068;51.286;7.518;2023-11-19T09:10:47;8.43;;;1.88;;
10056;SDS011;5068;51.286;7.518;2023-11-19T09:12:20;8.88;;;1.88;;
10056;SDS011;5068;51.286;7.518;2023-11-19T09:13:53;9.50;;;2.00;;
10056;SDS011;5068;51.286;7.518;2023-11-19T09:15:27;12.93;;;2.08;;
10056;SDS011;5068;51.286;7.518;2023-11-19T09:17:01;13.75;;;1.58;;
10056;SDS011;5068;51.286;7.518;2023-11-19T09:18:33;10.27;;;2.10;;
10056;SDS011;5068;51.286;7.518;2023-11-19T09:20:07;13.00;;;2.15;;
10056;SDS011;5068;51.286;7.518;2023-11-19T09:21:43;7.90;;;1.30;;
10056;SDS011;5068;51.286;7.518;2023-11-19T09:23:17;10.70;;;2.08;;
10056;SDS011;5068;51.286;7.518;2023-11-19T09:24:50;10.05;;;2.67;;
10056;SDS011;5068;51.286;7.518;2023-11-19T09:26:23;7.72;;;1.73;;
10056;SDS011;5068;51.286;7.518;2023-11-19T09:27:56;11.13;;;2.03;;
10056;SDS011;5068;51.286;7.518;2023-11-19T09:29:31;7.97;;;2.22;;
10056;SDS011;5068;51.286;7.518;2023-11-19T09:32:46;8.07;;;1.45;;
10056;SDS011;5068;51.286;7.518;2023-11-19T09:34:20;7.30;;;1.75;;
10056;SDS011;5068;51.286;7.518;2023-11-19T09:35:52;13.85;;;2.65;;
10056;SDS011;5068;51.286;7.518;2023-11-19T09:37:25;10.48;;;2.17;;
10056;SDS011;5068;51.286;7.518;2023-11-19T09:38:59;7.30;;;1.98;;
10056;SDS011;5068;51.286;7.518;2023-11-19T09:40:32;10.35;;;2.38;;
10056;SDS011;5068;51.286;7.518;2023-11-19T09:42:06;9.30;;;2.60;;
10056;SDS011;5068;51.286;7.518;2023-11-19T09:43:38;10.30;;;3.22;;
10056;SDS011;5068;51.286;7.518;2023-11-19T09:45:13;9.30;;;2.17;;